createdAt,value
2022-09-03T00:00:31.998Z,5.67
2022-09-03T00:03:05.502Z,7.53
2022-09-03T00:05:40.087Z,5.53
2022-09-03T00:08:12.749Z,6.67
2022-09-03T00:10:51.190Z,6.33
2022-09-03T00:13:24.797Z,8.43
2022-09-03T00:15:54.885Z,6.60
2022-09-03T00:18:28.326Z,5.30
2022-09-03T00:21:01.875Z,6.93
2022-09-03T00:23:32.694Z,5.53
2022-09-03T00:26:08.776Z,7.80
2022-09-03T00:28:42.537Z,5.13
2022-09-03T00:31:18.541Z,5.03
2022-09-03T00:33:49.562Z,6.17
2022-09-03T00:36:22.011Z,4.23
2022-09-03T00:38:50.708Z,3.43
2022-09-03T00:41:31.574Z,5.10
2022-09-03T00:44:29.457Z,3.63
2022-09-03T00:47:03.091Z,5.37
2022-09-03T00:49:42.751Z,3.47
2022-09-03T00:52:19.753Z,5.43
2022-09-03T00:55:01.910Z,3.90
2022-09-03T00:57:45.776Z,5.07
2022-09-03T01:00:19.613Z,3.93
2022-09-03T01:03:02.757Z,4.50
2022-09-03T01:06:01.909Z,4.53
2022-09-03T01:08:51.615Z,3.90
2022-09-03T01:11:28.008Z,5.57
2022-09-03T01:14:08.904Z,4.20
2022-09-03T01:16:45.668Z,4.20
2022-09-03T01:19:36.480Z,4.57
2022-09-03T01:22:23.466Z,4.30
2022-09-03T01:25:07.954Z,5.83
2022-09-03T01:27:46.741Z,4.47
2022-09-03T01:30:19.017Z,3.73
2022-09-03T01:32:55.298Z,4.97
2022-09-03T01:35:30.967Z,5.27
2022-09-03T01:38:12.512Z,5.47
2022-09-03T01:40:53.672Z,4.53
2022-09-03T01:43:40.031Z,6.77
2022-09-03T01:46:20.409Z,5.30
2022-09-03T01:48:59.965Z,4.00
2022-09-03T01:51:31.361Z,3.70
2022-09-03T01:54:28.362Z,5.23
2022-09-03T01:57:34.622Z,5.10
2022-09-03T02:00:07.404Z,4.43
2022-09-03T02:02:44.699Z,4.37
2022-09-03T02:05:16.311Z,4.57
2022-09-03T02:07:47.568Z,3.97
2022-09-03T02:10:18.415Z,4.43
2022-09-03T02:12:52.468Z,5.13
2022-09-03T02:15:23.473Z,5.73
2022-09-03T02:17:56.457Z,8.00
2022-09-03T02:20:28.597Z,4.73
2022-09-03T02:22:58.617Z,3.47
2022-09-03T02:25:33.618Z,3.97
2022-09-03T02:28:03.039Z,8.90
2022-09-03T02:30:31.262Z,4.43
2022-09-03T02:33:01.353Z,4.67
2022-09-03T02:35:29.961Z,6.50
2022-09-03T02:37:58.334Z,7.87
2022-09-03T02:40:26.625Z,6.23
2022-09-03T02:42:54.977Z,4.37
2022-09-03T02:45:28.503Z,4.17
2022-09-03T02:47:58.168Z,6.40
2022-09-03T02:50:28.065Z,4.33
2022-09-03T02:52:56.831Z,5.63
2022-09-03T02:55:24.984Z,4.70
2022-09-03T02:57:53.130Z,7.30
2022-09-03T03:00:21.423Z,7.27
2022-09-03T03:02:50.749Z,9.13
2022-09-03T03:05:29.287Z,5.57
2022-09-03T03:07:59.123Z,5.50
2022-09-03T03:10:27.320Z,6.17
2022-09-03T03:12:55.616Z,7.00
2022-09-03T03:15:23.885Z,4.20
2022-09-03T03:17:52.193Z,4.07
2022-09-03T03:20:20.382Z,5.83
2022-09-03T03:22:48.616Z,6.77
2022-09-03T03:25:18.428Z,4.63
2022-09-03T03:27:46.851Z,5.20
2022-09-03T03:30:15.286Z,6.57
2022-09-03T03:32:43.469Z,4.67
2022-09-03T03:35:11.934Z,6.60
2022-09-03T03:37:40.111Z,6.67
2022-09-03T03:40:09.300Z,7.57
2022-09-03T03:42:38.891Z,6.73
2022-09-03T03:45:07.938Z,6.97
2022-09-03T03:47:36.138Z,6.30
2022-09-03T03:50:05.845Z,4.13
2022-09-03T03:52:34.006Z,4.63
2022-09-03T03:55:02.215Z,4.07
2022-09-03T03:57:32.021Z,6.63
2022-09-03T04:00:01.905Z,4.33
2022-09-03T04:02:42.615Z,5.70
2022-09-03T04:05:11.539Z,4.67
2022-09-03T04:07:39.842Z,5.53
2022-09-03T04:10:09.645Z,6.13
2022-09-03T04:12:37.852Z,4.93
2022-09-03T04:15:08.241Z,7.40
2022-09-03T04:17:36.447Z,7.33
2022-09-03T04:20:05.153Z,4.00
2022-09-03T04:22:33.986Z,6.60
2022-09-03T04:25:02.112Z,4.73
2022-09-03T04:27:30.294Z,5.33
2022-09-03T04:29:58.496Z,4.60
2022-09-03T04:32:46.571Z,6.00
2022-09-03T04:35:14.833Z,4.67
2022-09-03T04:37:43.042Z,9.10
2022-09-03T04:40:11.906Z,5.97
2022-09-03T04:42:40.162Z,7.23
2022-09-03T04:45:09.592Z,7.53
2022-09-03T04:47:39.156Z,6.57
2022-09-03T04:50:08.393Z,9.17
2022-09-03T04:52:36.578Z,6.87
2022-09-03T04:55:05.592Z,5.60
2022-09-03T04:57:37.915Z,7.37
2022-09-03T05:00:10.910Z,5.10
2022-09-03T05:02:40.496Z,8.40
2022-09-03T05:05:09.507Z,6.97
2022-09-03T05:07:39.611Z,8.20
2022-09-03T05:10:10.163Z,6.73
2022-09-03T05:12:38.451Z,6.17
2022-09-03T05:15:07.737Z,8.37
2022-09-03T05:17:38.558Z,6.80
2022-09-03T05:20:10.155Z,4.13
2022-09-03T05:22:38.362Z,6.17
2022-09-03T05:25:07.625Z,11.00
2022-09-03T05:27:35.924Z,12.00
2022-09-03T05:30:04.423Z,6.43
2022-09-03T05:32:32.919Z,7.33
2022-09-03T05:35:01.100Z,6.30
2022-09-03T05:37:30.646Z,5.83
2022-09-03T05:39:58.895Z,8.40
2022-09-03T05:42:28.357Z,6.73
2022-09-03T05:44:57.515Z,3.63
2022-09-03T05:47:25.657Z,8.50
2022-09-03T05:49:53.859Z,5.20
2022-09-03T05:52:23.503Z,4.47
2022-09-03T05:54:53.066Z,9.73
2022-09-03T05:57:21.291Z,7.13
2022-09-03T05:59:49.900Z,6.83
2022-09-03T06:02:20.070Z,9.47
2022-09-03T06:04:48.567Z,5.00
2022-09-03T06:07:16.749Z,6.77
2022-09-03T06:09:45.061Z,7.83
2022-09-03T06:12:14.624Z,6.23
2022-09-03T06:14:42.832Z,4.10
2022-09-03T06:17:12.669Z,4.93
2022-09-03T06:19:40.813Z,6.53
2022-09-03T06:22:09.199Z,5.10
2022-09-03T06:24:37.397Z,5.50
2022-09-03T06:27:05.721Z,6.10
2022-09-03T06:29:36.295Z,9.40
2022-09-03T06:32:05.005Z,12.17
2022-09-03T06:34:33.260Z,6.10
2022-09-03T06:37:01.699Z,6.90
2022-09-03T06:39:30.792Z,4.83
2022-09-03T06:41:58.999Z,6.73
2022-09-03T06:44:36.748Z,3.90
2022-09-03T06:47:05.003Z,5.10
2022-09-03T06:49:33.252Z,9.60
2022-09-03T06:52:01.437Z,10.23
2022-09-03T06:54:29.603Z,9.13
2022-09-03T06:56:58.648Z,6.40
2022-09-03T06:59:28.002Z,4.57
2022-09-03T07:01:59.128Z,3.70
2022-09-03T07:04:27.574Z,4.17
2022-09-03T07:06:57.313Z,4.73
2022-09-03T07:09:25.544Z,4.33
2022-09-03T07:11:54.048Z,4.87
2022-09-03T07:14:23.202Z,4.33
2022-09-03T07:16:52.304Z,4.50
2022-09-03T07:19:21.880Z,3.23
2022-09-03T07:21:51.005Z,5.07
2022-09-03T07:24:22.048Z,4.43
2022-09-03T07:26:50.758Z,5.60
2022-09-03T07:29:21.509Z,3.80
2022-09-03T07:31:52.601Z,4.47
2022-09-03T07:34:26.458Z,4.90
2022-09-03T07:36:56.818Z,3.90
2022-09-03T07:39:25.223Z,3.53
2022-09-03T07:41:53.821Z,7.03
2022-09-03T07:44:24.724Z,3.40
2022-09-03T07:46:52.911Z,3.57
2022-09-03T07:49:23.130Z,3.13
2022-09-03T07:51:54.149Z,2.30
2022-09-03T07:54:23.973Z,2.63
2022-09-03T07:56:52.622Z,2.80
2022-09-03T07:59:23.054Z,4.00
2022-09-03T08:01:52.338Z,3.43
2022-09-03T08:04:23.003Z,4.83
2022-09-03T08:07:06.110Z,2.03
2022-09-03T08:09:34.359Z,4.80
2022-09-03T08:12:02.657Z,5.40
2022-09-03T08:14:31.757Z,2.70
2022-09-03T08:17:01.063Z,3.60
2022-09-03T08:19:30.642Z,2.93
2022-09-03T08:21:58.902Z,3.97
2022-09-03T08:24:27.224Z,4.57
2022-09-03T08:26:55.617Z,1.90
2022-09-03T08:29:25.599Z,2.57
2022-09-03T08:32:05.262Z,2.97
2022-09-03T08:34:35.159Z,5.50
2022-09-03T08:37:03.938Z,2.90
2022-09-03T08:39:33.494Z,2.93
2022-09-03T08:42:23.869Z,5.97
2022-09-03T08:44:56.168Z,3.60
2022-09-03T08:47:28.158Z,2.23
2022-09-03T08:50:01.189Z,4.53
2022-09-03T08:52:36.555Z,5.17
2022-09-03T08:55:22.977Z,5.07
2022-09-03T08:57:54.392Z,4.77
2022-09-03T09:00:22.571Z,2.50
2022-09-03T09:03:04.600Z,2.47
2022-09-03T09:05:44.701Z,3.67
2022-09-03T09:08:21.026Z,2.60
2022-09-03T09:10:55.877Z,4.43
2022-09-03T09:13:33.396Z,5.00
2022-09-03T09:16:10.329Z,1.63
2022-09-03T09:18:52.317Z,4.53
2022-09-03T09:21:29.067Z,1.83
2022-09-03T09:24:01.845Z,3.40
2022-09-03T09:26:30.266Z,2.63
2022-09-03T09:29:03.715Z,4.33
2022-09-03T09:31:33.399Z,2.50
2022-09-03T09:34:06.737Z,3.73
2022-09-03T09:36:43.319Z,2.97
2022-09-03T09:39:15.856Z,4.60
2022-09-03T09:41:44.892Z,2.67
2022-09-03T09:44:21.638Z,3.37
2022-09-03T09:46:54.142Z,2.60
2022-09-03T09:49:35.250Z,2.73
2022-09-03T09:52:08.787Z,3.93
2022-09-03T09:54:37.010Z,1.97
2022-09-03T09:57:06.730Z,3.20
2022-09-03T09:59:38.001Z,16.27
2022-09-03T10:02:13.717Z,3.73
2022-09-03T10:04:51.862Z,3.80
2022-09-03T10:07:26.199Z,7.03
2022-09-03T10:10:06.498Z,2.33
2022-09-03T10:12:40.496Z,2.25
2022-09-03T10:15:25.582Z,6.07
2022-09-03T10:18:08.233Z,3.88
2022-09-03T10:20:47.297Z,4.57
2022-09-03T10:23:21.897Z,2.60
2022-09-03T10:26:04.645Z,4.03
2022-09-03T10:28:38.368Z,3.43
2022-09-03T10:31:32.942Z,2.28
2022-09-03T10:34:05.831Z,2.70
2022-09-03T10:36:41.045Z,4.78
2022-09-03T10:39:20.555Z,2.58
2022-09-03T10:42:02.587Z,4.28
2022-09-03T10:44:42.216Z,3.60
2022-09-03T10:47:27.077Z,2.65
2022-09-03T10:50:03.830Z,3.00
2022-09-03T10:52:42.670Z,3.08
2022-09-03T10:55:20.546Z,3.95
2022-09-03T10:57:57.402Z,1.88
2022-09-03T11:00:27.077Z,4.30
2022-09-03T11:03:40.108Z,2.33
2022-09-03T11:06:12.457Z,2.15
2022-09-03T11:08:46.076Z,2.50
2022-09-03T11:11:20.620Z,7.68
2022-09-03T11:13:54.192Z,3.30
2022-09-03T11:16:27.201Z,2.33
2022-09-03T11:18:59.046Z,4.22
2022-09-03T11:21:30.127Z,4.35
2022-09-03T11:24:06.625Z,1.88
2022-09-03T11:26:37.797Z,4.72
2022-09-03T11:29:12.563Z,2.85
2022-09-03T11:31:51.121Z,3.90
2022-09-03T11:34:31.864Z,2.95
2022-09-03T11:37:19.761Z,3.95
2022-09-03T11:39:59.802Z,3.75
2022-09-03T11:42:33.885Z,3.83
2022-09-03T11:45:15.511Z,3.15
2022-09-03T11:47:44.808Z,3.33
2022-09-03T11:50:21.676Z,3.65
2022-09-03T11:52:52.080Z,3.22
2022-09-03T11:55:38.299Z,2.33
2022-09-03T11:58:20.774Z,2.42
2022-09-03T12:00:50.585Z,4.95
2022-09-03T12:03:18.795Z,5.00
2022-09-03T12:05:56.184Z,3.65
2022-09-03T12:08:44.133Z,1.90
2022-09-03T12:11:30.559Z,4.18
2022-09-03T12:14:11.619Z,5.43
2022-09-03T12:16:56.342Z,3.08
2022-09-03T12:19:33.224Z,4.15
2022-09-03T12:22:05.464Z,3.33
2022-09-03T12:24:37.706Z,3.38
2022-09-03T12:27:08.073Z,3.15
2022-09-03T12:29:37.929Z,3.33
2022-09-03T12:32:13.166Z,2.40
2022-09-03T12:34:41.617Z,2.50
2022-09-03T12:38:04.518Z,3.08
2022-09-03T12:40:19.130Z,2.05
2022-09-03T12:42:47.396Z,3.83
2022-09-03T12:45:21.277Z,1.88
2022-09-03T12:47:49.590Z,2.38
2022-09-03T12:50:20.209Z,2.55
2022-09-03T12:52:51.923Z,18.65
2022-09-03T12:55:34.197Z,9.23
2022-09-03T12:58:11.409Z,3.00
2022-09-03T13:00:47.243Z,2.20
2022-09-03T13:03:21.152Z,2.75
2022-09-03T13:05:53.894Z,3.70
2022-09-03T13:08:24.916Z,3.80
2022-09-03T13:10:55.125Z,2.67
2022-09-03T13:13:26.514Z,3.80
2022-09-03T13:16:19.058Z,2.50
2022-09-03T13:18:57.009Z,2.13
2022-09-03T13:21:42.401Z,2.15
2022-09-03T13:24:32.779Z,5.15
2022-09-03T13:27:12.220Z,2.05
2022-09-03T13:29:53.968Z,2.83
2022-09-03T13:32:33.612Z,3.92
2022-09-03T13:35:11.004Z,2.22
2022-09-03T13:37:41.569Z,3.03
2022-09-03T13:40:19.329Z,3.90
2022-09-03T13:42:54.224Z,3.47
2022-09-03T13:45:32.328Z,1.95
2022-09-03T13:48:30.431Z,5.28
2022-09-03T13:51:05.635Z,1.77
2022-09-03T13:53:43.516Z,2.55
2022-09-03T13:56:22.869Z,2.08
2022-09-03T13:58:57.893Z,1.95
2022-09-03T14:01:37.931Z,1.98
2022-09-03T14:04:15.682Z,2.97
2022-09-03T14:06:47.417Z,1.92
2022-09-03T14:09:22.114Z,1.90
2022-09-03T14:11:58.774Z,1.67
2022-09-03T14:14:40.500Z,2.85
2022-09-03T14:17:15.438Z,3.15
2022-09-03T14:19:50.458Z,3.70
2022-09-03T14:22:23.278Z,2.13
2022-09-03T14:24:56.780Z,4.03
2022-09-03T14:27:27.175Z,1.90
2022-09-03T14:29:59.914Z,2.25
2022-09-03T14:32:31.910Z,2.22
2022-09-03T14:35:28.739Z,3.45
2022-09-03T14:38:21.553Z,2.13
2022-09-03T14:41:02.719Z,1.00
2022-09-03T14:43:56.488Z,3.92
2022-09-03T14:46:37.611Z,2.70
2022-09-03T14:49:32.420Z,1.83
2022-09-03T14:52:24.021Z,2.88
2022-09-03T14:55:16.016Z,1.90
2022-09-03T14:58:02.223Z,3.03
2022-09-03T15:00:38.079Z,1.52
2022-09-03T15:03:29.051Z,6.93
2022-09-03T15:06:30.674Z,4.22
2022-09-03T15:09:20.799Z,7.60
2022-09-03T15:11:53.973Z,1.57
2022-09-03T15:14:28.451Z,2.80
2022-09-03T15:17:01.511Z,3.07
2022-09-03T15:19:57.293Z,5.10
2022-09-03T15:22:50.270Z,5.87
2022-09-03T15:25:30.112Z,2.10
2022-09-03T15:28:12.955Z,6.73
2022-09-03T15:30:46.590Z,1.50
2022-09-03T15:33:24.695Z,1.93
2022-09-03T15:36:12.660Z,2.63
2022-09-03T15:38:46.519Z,1.87
2022-09-03T15:41:33.029Z,2.13
2022-09-03T15:44:02.560Z,0.60
2022-09-03T15:46:50.740Z,2.13
2022-09-03T15:49:26.190Z,2.67
2022-09-03T15:52:07.095Z,3.77
2022-09-03T15:54:44.033Z,2.40
2022-09-03T15:57:19.485Z,0.83
2022-09-03T15:59:55.719Z,2.57
2022-09-03T16:02:33.579Z,2.73
2022-09-03T16:05:14.235Z,1.97
2022-09-03T16:08:06.114Z,1.80
2022-09-03T16:10:44.369Z,2.40
2022-09-03T16:13:33.716Z,3.87
2022-09-03T16:16:05.016Z,3.97
2022-09-03T16:18:38.336Z,2.67
2022-09-03T16:21:12.863Z,3.33
2022-09-03T16:23:50.469Z,5.03
2022-09-03T16:26:25.745Z,3.53
2022-09-03T16:29:04.671Z,2.83
2022-09-03T16:31:58.020Z,4.70
2022-09-03T16:34:37.825Z,3.70
2022-09-03T16:37:16.528Z,4.67
2022-09-03T16:39:58.851Z,4.90
2022-09-03T16:42:40.611Z,2.73
2022-09-03T16:45:20.936Z,3.80
2022-09-03T16:48:08.951Z,3.67
2022-09-03T16:50:51.893Z,4.90
2022-09-03T16:53:32.252Z,1.97
2022-09-03T16:56:20.374Z,2.40
2022-09-03T16:59:01.548Z,2.70
2022-09-03T17:01:55.571Z,4.57
2022-09-03T17:04:46.611Z,7.27
2022-09-03T17:07:34.500Z,8.47
2022-09-03T17:10:11.148Z,26.20
2022-09-03T17:12:45.071Z,33.27
2022-09-03T17:15:33.884Z,26.23
2022-09-03T17:18:27.888Z,25.63
2022-09-03T17:21:21.366Z,17.10
2022-09-03T17:24:14.385Z,11.30
2022-09-03T17:26:55.864Z,16.10
2022-09-03T17:29:38.238Z,16.10
2022-09-03T17:32:24.093Z,15.83
2022-09-03T17:35:06.611Z,16.13
2022-09-03T17:37:50.226Z,15.90
2022-09-03T17:40:27.868Z,14.73
2022-09-03T17:43:01.655Z,11.30
2022-09-03T17:45:42.811Z,13.80
2022-09-03T17:48:42.137Z,8.83
2022-09-03T17:51:18.619Z,9.43
2022-09-03T17:53:53.113Z,7.63
2022-09-03T17:56:26.983Z,8.17
2022-09-03T17:59:04.248Z,7.80
2022-09-03T18:01:36.723Z,9.03
2022-09-03T18:04:18.891Z,7.87
2022-09-03T18:06:56.069Z,8.13
2022-09-03T18:09:35.788Z,9.87
2022-09-03T18:12:12.733Z,10.73
2022-09-03T18:14:47.697Z,8.10
2022-09-03T18:17:26.551Z,9.83
2022-09-03T18:20:19.203Z,8.87
2022-09-03T18:23:12.084Z,11.10
2022-09-03T18:26:02.720Z,11.47
2022-09-03T18:28:54.755Z,10.87
2022-09-03T18:31:40.401Z,10.37
2022-09-03T18:34:27.282Z,8.90
2022-09-03T18:37:16.733Z,9.17
2022-09-03T18:40:06.023Z,7.80
2022-09-03T18:43:02.453Z,9.37
2022-09-03T18:46:38.514Z,9.70
2022-09-03T18:49:13.003Z,8.43
2022-09-03T18:52:04.443Z,8.80
2022-09-03T18:55:08.801Z,14.73
2022-09-03T18:58:07.315Z,10.57
2022-09-03T19:00:58.920Z,7.93
2022-09-03T19:04:11.263Z,9.83
2022-09-03T19:07:03.516Z,12.13
2022-09-03T19:10:00.100Z,12.43
2022-09-03T19:13:02.828Z,8.30
2022-09-03T19:15:51.421Z,12.50
2022-09-03T19:18:51.057Z,14.27
2022-09-03T19:21:47.160Z,13.30
2022-09-03T19:24:32.909Z,11.43
2022-09-03T19:27:53.049Z,13.87
2022-09-03T19:30:39.708Z,11.20
2022-09-03T19:33:32.092Z,14.67
2022-09-03T19:36:28.115Z,23.57
2022-09-03T19:39:29.412Z,21.97
2022-09-03T19:42:23.162Z,21.83
2022-09-03T19:45:21.770Z,19.27
2022-09-03T19:48:20.664Z,20.47
2022-09-03T19:51:18.256Z,18.63
2022-09-03T19:54:06.475Z,16.83
2022-09-03T19:56:54.206Z,22.73
2022-09-03T19:59:44.227Z,23.73
2022-09-03T20:02:30.031Z,28.07
2022-09-03T20:05:18.796Z,20.97
2022-09-03T20:08:09.160Z,22.43
2022-09-03T20:10:38.171Z,21.90
2022-09-03T20:13:10.005Z,21.97
2022-09-03T20:15:49.406Z,23.53
2022-09-03T20:18:31.069Z,25.53
2022-09-03T20:21:11.992Z,21.60
2022-09-03T20:23:48.807Z,20.20
2022-09-03T20:26:31.915Z,25.53
2022-09-03T20:29:22.270Z,30.47
2022-09-03T20:31:57.470Z,26.30
2022-09-03T20:34:35.646Z,24.97
2022-09-03T20:37:24.440Z,27.40
2022-09-03T20:40:17.795Z,26.90
2022-09-03T20:43:01.681Z,38.57
2022-09-03T20:45:43.719Z,31.67
2022-09-03T20:48:21.986Z,32.33
2022-09-03T20:50:57.293Z,30.33
2022-09-03T20:53:51.166Z,26.97
2022-09-03T20:56:27.748Z,32.83
2022-09-03T20:59:04.041Z,26.60
2022-09-03T21:01:39.456Z,30.00
2022-09-03T21:04:21.646Z,27.03
2022-09-03T21:06:57.188Z,28.83
2022-09-03T21:09:34.747Z,23.30
2022-09-03T21:12:10.427Z,23.40
2022-09-03T21:14:42.471Z,19.77
2022-09-03T21:17:30.199Z,19.47
2022-09-03T21:20:11.391Z,17.97
2022-09-03T21:22:47.527Z,13.40
2022-09-03T21:25:22.062Z,15.57
2022-09-03T21:27:56.299Z,12.67
2022-09-03T21:30:24.540Z,15.27
2022-09-03T21:32:56.869Z,14.67
2022-09-03T21:35:28.634Z,15.87
2022-09-03T21:38:00.335Z,11.93
2022-09-03T21:40:32.438Z,15.60
2022-09-03T21:43:09.510Z,14.23
2022-09-03T21:45:43.184Z,17.77
2022-09-03T21:48:18.169Z,13.97
2022-09-03T21:50:55.069Z,14.63
2022-09-03T21:53:29.900Z,13.07
2022-09-03T21:56:16.905Z,14.10
2022-09-03T21:59:08.138Z,10.33
2022-09-03T22:01:47.233Z,11.13
2022-09-03T22:04:15.611Z,13.67
2022-09-03T22:06:51.180Z,12.10
2022-09-03T22:09:28.116Z,14.47
2022-09-03T22:12:04.698Z,15.50
2022-09-03T22:14:38.515Z,14.63
2022-09-03T22:17:12.404Z,11.10
2022-09-03T22:19:40.678Z,13.80
2022-09-03T22:22:16.484Z,14.60
2022-09-03T22:24:50.009Z,11.17
2022-09-03T22:27:27.060Z,11.70
2022-09-03T22:30:05.057Z,14.20
2022-09-03T22:32:45.778Z,10.53
2022-09-03T22:35:38.946Z,13.27
2022-09-03T22:38:25.632Z,13.67
2022-09-03T22:41:00.684Z,12.93
2022-09-03T22:43:37.793Z,18.07
2022-09-03T22:46:12.874Z,18.70
2022-09-03T22:49:06.949Z,11.97
2022-09-03T22:51:51.450Z,12.93
2022-09-03T22:54:34.534Z,14.17
2022-09-03T22:57:04.178Z,11.33
2022-09-03T22:59:38.161Z,14.53
2022-09-03T23:02:12.360Z,12.43
2022-09-03T23:04:50.077Z,11.20
2022-09-03T23:07:25.080Z,11.30
2022-09-03T23:09:58.414Z,10.50
2022-09-03T23:12:36.594Z,12.47
2022-09-03T23:15:11.107Z,11.33
2022-09-03T23:17:44.048Z,12.83
2022-09-03T23:20:20.115Z,13.13
2022-09-03T23:22:54.517Z,14.20
2022-09-03T23:25:25.530Z,15.80
2022-09-03T23:27:58.671Z,12.60
2022-09-03T23:30:28.296Z,12.23
2022-09-03T23:32:58.963Z,12.47
2022-09-03T23:35:30.127Z,13.07
2022-09-03T23:38:09.035Z,11.23
2022-09-03T23:40:49.416Z,12.00
2022-09-03T23:43:48.220Z,12.63
2022-09-03T23:46:22.155Z,9.83
2022-09-03T23:49:28.889Z,9.63
2022-09-03T23:52:13.090Z,11.97
2022-09-03T23:54:47.742Z,14.30
2022-09-03T23:57:24.580Z,16.20
